• Join FlightAware (Why Join?)
  • Login
  • US Flag 
Trick or treat! (Boo!!) 
06:19PM EDT


 

Airport Tracker/Info


-or-


 

Live Flight TrackerFlight Track Log ✈ EJA131 ✈ 23-Jul-2013 ✈ KIND - KIAD

Flight Track Log - Related Links

Times and Time Zones

All times are in EDT time to prevent confusion due to time zone crossing. See the EJA131 flight status page for this flight to view local times or setup timezone preferences in your user account.

Time Position Orientation Groundspeed Altitude Reporting Facility
EDT Latitude Longitude Course Direction KTS MPH feet Rate Location/Type
06:37PM 39.6731 -86.3197 209° Southwest 134 154 3,300  Level Indianapolis Center
06:38PM 39.6189 -86.2981 163° South 210 242 6,800 3,300 Climbing Indianapolis Center
06:39PM 39.6436 -86.1917 73° East 253 291 10,200 2,640 Climbing Indianapolis Center
06:41PM 39.6703 -86.0928 71° East 290 334 12,300 1,980 Climbing Indianapolis Center
06:42PM 39.7000 -85.9792 71° East 328 377 14,300 1,860 Climbing Indianapolis Center
06:43PM 39.7308 -85.8586 72° East 348 400 16,200 1,980 Climbing Indianapolis Center
06:44PM 39.7692 -85.7053 72° East 369 425 18,500 1,920 Climbing Indianapolis Center
06:45PM 39.8022 -85.5742 72° East 381 438 20,200 1,680 Climbing Indianapolis Center
06:46PM 39.8347 -85.4381 73° East 394 453 22,000 1,680 Climbing Indianapolis Center
06:48PM 39.8656 -85.1525 82° East 400 460 25,500 1,620 Climbing Indianapolis Center
06:49PM 39.8800 -85.0089 82° East 402 463 27,100 1,260 Climbing Indianapolis Center
06:50PM 39.9014 -84.8394 81° East 416 479 28,200 960 Climbing Indianapolis Center
06:51PM 39.9206 -84.6814 81° East 435 501 29,200 960 Climbing Indianapolis Center
06:52PM 39.9397 -84.5214 81° East 443 510 30,200 840 Climbing Indianapolis Center
06:53PM 39.9589 -84.3569 81° East 453 521 31,000 840 Climbing Indianapolis Center
06:54PM 39.9817 -84.1608 81° East 463 533 32,000 840 Climbing Indianapolis Center
06:55PM 40.0017 -83.9903 81° East 469 540 32,800 720 Climbing Indianapolis Center
06:56PM 40.0208 -83.8172 82° East 474 545 33,600 720 Climbing Indianapolis Center
06:57PM 40.0342 -83.6433 84° East 476 548 34,400 720 Climbing Indianapolis Center
06:58PM 40.0164 -83.4683 98° East 475 547 35,200 720 Climbing Indianapolis Center
06:59PM 39.9967 -83.2928 98° East 477 549 35,900 540 Climbing Indianapolis Center
07:00PM 39.9761 -83.1200 99° East 475 547 36,400 480 Climbing Indianapolis Center
07:01PM 39.9561 -82.9475 99° East 476 548 37,000 660 Climbing Indianapolis Center
07:02PM 39.9361 -82.7767 99° East 474 545 37,800 720 Climbing Indianapolis Center
07:03PM 39.9164 -82.6061 99° East 472 543 38,500 660 Climbing Indianapolis Center
07:04PM 39.8961 -82.4389 99° East 467 537 39,200 720 Climbing Indianapolis Center
07:05PM 39.8733 -82.2439 99° East 464 534 40,100 720 Climbing Indianapolis Center
07:06PM 39.8525 -82.0803 99° East 458 527 40,800 420 Climbing Indianapolis Center
07:07PM 39.8339 -81.9192 99° East 449 517 41,000 60 Climbing Indianapolis Center
07:08PM 39.8133 -81.7550 99° East 454 522 41,000  Level Indianapolis Center
07:09PM 39.7922 -81.5881 99° East 461 531 41,000  Level Indianapolis Center
07:10PM 39.7681 -81.4117 100° East 470 541 41,000  Level Indianapolis Center
07:12PM 39.7450 -81.2372 100° East 484 557 41,000  Level Indianapolis Center
07:13PM 39.7231 -81.0636 99° East 486 559 41,000  Level Indianapolis Center
07:14PM 39.7003 -80.8908 100° East 484 557 41,000  Level Indianapolis Center
07:15PM 39.6717 -80.6847 100° East 483 556 41,000 -120 Level Indianapolis Center
07:16PM 39.6481 -80.5142 100° East 479 551 40,800 -780 Descending Indianapolis Center
07:17PM 39.6206 -80.3383 101° East 491 565 39,500 -1,260 Descending Indianapolis Center
07:18PM 39.5936 -80.1603 101° East 500 575 38,200 -1,920 Descending Indianapolis Center
07:19PM 39.5631 -79.9833 103° East 503 579 35,600 -2,700 Descending Indianapolis Center
07:20PM 39.5331 -79.7650 100° East 506 582 32,100 -2,940 Descending Washington Center
07:21PM 39.5036 -79.5911 102° East 511 588 29,000 -2,580 Descending Washington Center
07:22PM 39.4758 -79.4147 101° East 501 577 27,000 -1,620 Descending Washington Center
07:23PM 39.4422 -79.2222 103° East 496 571 25,900 -1,800 Descending Washington Center
07:24PM 39.4117 -79.0569 103° East 488 562 23,400 -2,340 Descending Washington Center
07:25PM 39.3869 -78.9053 102° East 458 527 21,300 -2,220 Descending Washington Center
07:26PM 39.3575 -78.7589 105° East 435 501 19,100 -2,160 Descending Washington Center
07:27PM 39.3339 -78.6183 102° East 418 481 17,000 -1,980 Descending Washington Center
07:28PM 39.3100 -78.4914 104° East 399 459 15,100 -1,860 Descending Washington Center
07:29PM 39.2839 -78.3642 105° East 371 427 13,400 -1,860 Descending Washington Center
07:30PM 39.2300 -78.2575 123° Southeast 357 411 11,500 -1,560 Descending Washington Center
07:31PM 39.1778 -78.1619 125° Southeast 344 396 10,300 -780 Descending Washington Center
07:32PM 39.1297 -78.0694 124° Southeast 330 380 10,000 -540 Descending Washington Center
07:33PM 39.0794 -77.9767 125° Southeast 320 368 9,200 -1,320 Descending Washington Center
07:34PM 39.0311 -77.8844 124° Southeast 320 368 7,400 -1,140 Descending Washington Center
07:35PM 38.9847 -77.8000 125° Southeast 302 348 7,000 -720 Descending Washington Center
07:36PM 38.9636 -77.7114 107° East 285 328 6,000 -1,260 Descending Washington Center
07:37PM 38.9211 -77.6275 123° Southeast 267 307 4,600 -1,080 Descending Washington Center
07:38PM 38.8675 -77.5967 156° South 239 275 3,900 -780 Descending Washington Center
07:39PM 38.8167 -77.5167 129° Southeast 178 205 3,000 -660 Descending Potomac TRACON
07:40PM 38.8333 -77.4667 67° East 166 191 2,600 -720 Descending Potomac TRACON
07:41PM 38.8667 -77.4333 38° Northeast 152 175 1,700 -900 Descending Potomac TRACON
07:42PM 38.9000 -77.4333 360° North 129 148 900 -840 Descending Potomac TRACON
07:44PM 38.9333 -77.4500 339° North  Level FlightAware Approximate
07:51PM 38.9474 -77.4599 339° North  Level Estimated
07:52PM 38.9474 -77.4599 339° North  Level Estimated
07:53PM 38.9474 -77.4599 339° North  Level Estimated
07:54PM 38.9474 -77.4599 339° North  Level Estimated
07:55PM 38.9474 -77.4599 339° North  Level Estimated
07:56PM 38.9474 -77.4599 339° North  Level Estimated